Chimayo, New Mexico
Current Conditions -  °F | °C
As of 5:15 PM on Sunday 23 Nov 2014 (Local Time) from KLAM Reporting Station
Broken Clouds Broken Clouds  
Wind Chill: 29°   Ceiling: 11000
Heat Index: 34°   Visibility: 10mi
Dew Point: 10°   Wind: 6mph
Humidity: 38%   Direction: 70°ENE
Pressure: 29.9"   Gusts: NA
Location:  36°N, 105.93°W
Report Text: KLAM 240015Z AUTO 07005KT 10SM SCT060 SCT080 BKN110 01/M12 A2990 RMK AO2 T00101121
Loading
Personal Weather Stations






























Interactive Weather Map New forecast layout! Learn more

10-Day Weather Forecast

Advertisements
Track Severe Weather on mobile